Terminal Aerodrome Forecast
Issued by NWS

Home | Current Version | Previous Version | Text Only | Print | Product List | Glossary On
Versions: 1 2 3 4 5 6 7 8 9 10 11 12 13
959
FTUS46 KMFR 141736
TAFOTH
TAF
KOTH 141736Z 1418/1518 14005KT P6SM FEW250
     FM142100 36008KT P6SM FEW250
     FM150600 12005KT P6SM FEW250=

USA.gov is the U.S. government's official web portal to all federal, state and local government web resources and services.